Time;durP1;ratioP1;P1;durP2;ratioP2;P2;SDS_P1;SDS_P2;PMS_P1;PMS_P2;Temp;Humidity;BMP_temperature;BMP_pressure;BME280_temperature;BME280_humidity;BME280_pressure;Samples;Min_cycle;Max_cycle;Signal;HPM_P1;HPM_P2
2023/03/02 00:00:42;;;;;;;17.50;12.68;;;;;;;4.02;100.00;93343.84;5042733;28;20052;-69
2023/03/02 00:03:10;;;;;;;18.55;13.32;;;;;;;3.82;100.00;93335.81;5047506;28;20040;-69
2023/03/02 00:05:40;;;;;;;18.98;13.32;;;;;;;3.79;100.00;93331.84;5054140;28;20049;-69
2023/03/02 00:08:09;;;;;;;16.50;12.27;;;;;;;3.56;100.00;93319.88;5068614;28;20127;-69
2023/03/02 00:10:36;;;;;;;20.27;13.45;;;;;;;3.75;100.00;93330.59;5068363;28;20163;-69
2023/03/02 00:13:03;;;;;;;19.33;13.48;;;;;;;3.58;100.00;93340.84;5068344;28;20090;-69
2023/03/02 00:15:31;;;;;;;17.92;13.45;;;;;;;3.46;100.00;93325.16;5067067;28;20095;-68
2023/03/02 00:17:58;;;;;;;17.40;12.00;;;;;;;3.52;100.00;93328.75;5063681;28;20114;-69
2023/03/02 00:20:24;;;;;;;17.67;12.88;;;;;;;3.47;100.00;93316.56;5071520;28;20095;-69
2023/03/02 00:22:51;;;;;;;17.83;13.15;;;;;;;3.46;100.00;93322.59;5072071;28;20378;-69
2023/03/02 00:25:18;;;;;;;19.48;13.05;;;;;;;3.37;100.00;93308.34;5071297;28;20044;-69
2023/03/02 00:27:45;;;;;;;17.60;12.68;;;;;;;3.51;100.00;93318.78;5071998;28;20451;-69
2023/03/02 00:30:13;;;;;;;18.67;12.90;;;;;;;3.32;100.00;93282.63;5071524;28;20094;-69
2023/03/02 00:32:42;;;;;;;17.42;12.85;;;;;;;3.59;100.00;93316.22;5071450;28;20378;-69
2023/03/02 00:35:10;;;;;;;18.55;12.63;;;;;;;3.73;100.00;93315.53;5071555;28;20098;-69
2023/03/02 00:37:37;;;;;;;19.15;13.10;;;;;;;3.74;100.00;93314.56;5071300;28;20059;-69
2023/03/02 00:40:06;;;;;;;20.45;13.73;;;;;;;3.79;100.00;93318.38;5071539;28;20098;-69
2023/03/02 00:42:33;;;;;;;19.50;13.52;;;;;;;3.93;100.00;93309.28;5071407;28;20135;-69
2023/03/02 00:45:00;;;;;;;19.55;13.13;;;;;;;3.98;100.00;93302.72;5067486;28;20053;-69
2023/03/02 00:47:27;;;;;;;18.75;12.85;;;;;;;3.85;100.00;93302.47;5061900;28;20059;-69
2023/03/02 00:49:56;;;;;;;17.65;12.40;;;;;;;3.86;100.00;93298.97;5071228;28;20550;-69
2023/03/02 00:52:23;;;;;;;18.02;12.60;;;;;;;3.97;100.00;93301.13;5071630;28;20044;-69
2023/03/02 00:54:49;;;;;;;16.42;11.52;;;;;;;4.03;100.00;93299.66;5071030;28;20051;-69
2023/03/02 00:57:16;;;;;;;17.00;10.73;;;;;;;4.08;100.00;93292.31;5071514;28;20125;-69
2023/03/02 00:59:43;;;;;;;14.73;10.32;;;;;;;4.01;100.00;93283.78;5071384;28;20053;-69
2023/03/02 01:02:10;;;;;;;17.98;12.50;;;;;;;4.11;100.00;93283.56;5071185;28;20090;-69
2023/03/02 01:04:39;;;;;;;13.95;10.30;;;;;;;3.94;100.00;93277.81;5070916;28;20053;-69
2023/03/02 01:07:09;;;;;;;15.32;10.05;;;;;;;4.01;100.00;93279.53;5068022;28;20414;-68
2023/03/02 01:09:37;;;;;;;13.93;10.45;;;;;;;3.97;100.00;93274.91;5044145;28;20526;-69
2023/03/02 01:12:08;;;;;;;14.10;10.18;;;;;;;3.98;100.00;93281.59;5071050;28;20045;-69
2023/03/02 01:14:35;;;;;;;16.13;10.15;;;;;;;4.07;100.00;93277.28;5045925;28;20492;-69
2023/03/02 01:17:01;;;;;;;14.32;9.85;;;;;;;3.99;100.00;93275.56;5070405;28;20117;-70
2023/03/02 01:19:30;;;;;;;10.65;7.60;;;;;;;3.82;100.00;93267.22;5063323;28;20049;-68
2023/03/02 01:21:57;;;;;;;11.88;7.90;;;;;;;3.85;100.00;93270.22;5065558;28;20127;-69
2023/03/02 01:24:25;;;;;;;12.20;8.02;;;;;;;3.86;100.00;93264.19;5070938;28;20086;-68
2023/03/02 01:26:52;;;;;;;11.93;7.00;;;;;;;3.92;100.00;93272.88;5069890;28;20084;-68
2023/03/02 01:29:19;;;;;;;11.48;7.85;;;;;;;3.95;100.00;93259.06;5070485;28;20415;-69
2023/03/02 01:31:45;;;;;;;8.85;6.38;;;;;;;3.92;100.00;93267.81;5070346;28;20040;-69
2023/03/02 01:34:12;;;;;;;9.05;6.60;;;;;;;3.87;100.00;93273.41;5065593;28;20049;-69
2023/03/02 01:36:39;;;;;;;9.90;6.93;;;;;;;3.74;100.00;93273.13;5069198;28;20493;-70
2023/03/02 01:39:05;;;;;;;8.43;6.30;;;;;;;3.68;100.00;93261.09;5069898;28;20086;-71
2023/03/02 01:41:34;;;;;;;7.78;5.95;;;;;;;3.47;100.00;93263.22;5070089;28;20053;-70
2023/03/02 01:44:00;;;;;;;8.70;6.93;;;;;;;3.44;100.00;93260.22;5069394;28;20550;-71
2023/03/02 01:46:31;;;;;;;10.43;7.25;;;;;;;3.44;100.00;93263.56;5069537;28;20048;-71
2023/03/02 01:49:01;;;;;;;10.13;7.13;;;;;;;3.22;100.00;93234.59;5069383;28;20508;-71
2023/03/02 01:51:30;;;;;;;9.23;6.65;;;;;;;3.47;100.00;93260.69;5069581;28;20082;-71
2023/03/02 01:54:02;;;;;;;12.55;8.45;;;;;;;3.47;100.00;93258.16;5069477;28;20101;-70
2023/03/02 01:56:33;;;;;;;15.80;11.20;;;;;;;3.60;100.00;93257.63;5069408;28;20044;-71
2023/03/02 01:59:05;;;;;;;16.52;12.32;;;;;;;3.67;100.00;93255.22;5069378;28;20072;-72
2023/03/02 02:01:36;;;;;;;13.40;8.95;;;;;;;3.73;100.00;93253.75;5069639;28;20053;-72
2023/03/02 02:04:03;;;;;;;13.82;9.70;;;;;;;3.57;100.00;93217.31;5069268;28;20567;-71
2023/03/02 02:06:34;;;;;;;13.13;8.45;;;;;;;3.86;100.00;93256.56;5069178;28;20090;-71
2023/03/02 02:09:03;;;;;;;13.60;9.05;;;;;;;3.93;100.00;93253.34;5068964;28;20044;-72
2023/03/02 02:11:30;;;;;;;11.32;9.02;;;;;;;4.00;100.00;93262.69;5069323;28;20052;-72
2023/03/02 02:13:59;;;;;;;14.80;10.00;;;;;;;4.07;100.00;93256.94;5069235;28;20098;-71
2023/03/02 02:16:28;;;;;;;16.15;10.45;;;;;;;4.04;100.00;93252.16;5064632;28;20597;-72
2023/03/02 02:18:55;;;;;;;14.15;10.60;;;;;;;3.96;100.00;93246.19;5069233;28;20049;-71
2023/03/02 02:21:24;;;;;;;11.85;8.75;;;;;;;3.81;100.00;93255.47;5069042;28;20048;-72
2023/03/02 02:24:03;;;;;;;10.75;8.75;;;;;;;3.60;100.00;93251.75;5068683;28;20511;-71
2023/03/02 02:26:36;;;;;;;12.07;9.50;;;;;;;3.39;100.00;93221.84;5068739;28;20052;-72
2023/03/02 02:29:11;;;;;;;10.85;8.80;;;;;;;3.50;100.00;93251.97;5063525;28;20044;-71
2023/03/02 02:31:40;;;;;;;12.07;8.40;;;;;;;3.36;100.00;93245.81;5068808;28;20048;-72
2023/03/02 02:34:14;;;;;;;12.27;9.20;;;;;;;3.41;100.00;93246.13;5069017;28;20044;-72
2023/03/02 02:36:47;;;;;;;12.77;8.65;;;;;;;3.37;100.00;93247.41;5068185;28;20094;-71
2023/03/02 02:39:18;;;;;;;10.82;8.60;;;;;;;3.33;100.00;93228.34;5068688;28;20106;-72
2023/03/02 02:41:49;;;;;;;12.63;9.75;;;;;;;3.46;100.00;93243.88;5068689;28;20040;-71
2023/03/02 02:44:18;;;;;;;14.15;10.07;;;;;;;3.44;100.00;93242.47;5068895;28;20044;-70
2023/03/02 02:46:45;;;;;;;13.50;10.98;;;;;;;3.49;100.00;93245.28;5068471;28;20048;-71
2023/03/02 02:49:23;;;;;;;13.65;10.02;;;;;;;3.57;100.00;93244.47;5068556;28;20048;-72
2023/03/02 02:51:50;;;;;;;14.18;11.15;;;;;;;3.64;100.00;93240.31;5068776;28;20045;-72
2023/03/02 02:54:19;;;;;;;14.02;10.73;;;;;;;3.67;100.00;93234.91;5068227;28;20044;-72
2023/03/02 02:56:50;;;;;;;13.82;9.50;;;;;;;3.67;100.00;93227.28;5068754;28;20040;-72
2023/03/02 02:59:20;;;;;;;12.82;9.50;;;;;;;3.68;100.00;93233.94;5068580;28;20040;-73
2023/03/02 03:01:48;;;;;;;12.07;8.73;;;;;;;3.73;100.00;93231.69;5068687;28;20045;-72
2023/03/02 03:04:20;;;;;;;10.70;8.32;;;;;;;3.72;100.00;93230.13;5068679;28;20413;-72
2023/03/02 03:06:52;;;;;;;11.95;9.88;;;;;;;3.65;100.00;93228.41;5063062;28;20173;-72
2023/03/02 03:09:19;;;;;;;12.63;9.98;;;;;;;3.45;100.00;93216.09;5068054;28;20500;-71
2023/03/02 03:11:50;;;;;;;13.77;11.05;;;;;;;3.51;100.00;93222.28;5068240;28;20041;-71
2023/03/02 03:14:20;;;;;;;13.13;9.95;;;;;;;3.45;100.00;93223.72;5068286;28;20048;-72
2023/03/02 03:16:51;;;;;;;11.95;7.88;;;;;;;3.33;100.00;93216.47;5068270;28;20554;-71
2023/03/02 03:19:21;;;;;;;9.88;8.40;;;;;;;3.29;100.00;93215.22;5068178;28;20094;-72
2023/03/02 03:21:49;;;;;;;10.80;8.25;;;;;;;3.33;100.00;93210.59;5068207;28;20037;-72
2023/03/02 03:24:16;;;;;;;9.00;7.90;;;;;;;3.37;100.00;93216.94;5067950;28;20040;-71
2023/03/02 03:26:43;;;;;;;10.48;7.78;;;;;;;3.34;100.00;93214.72;5063066;28;20110;-72
2023/03/02 03:29:11;;;;;;;9.63;7.60;;;;;;;3.32;100.00;93222.50;5068362;28;20052;-71
2023/03/02 03:31:38;;;;;;;9.32;7.32;;;;;;;3.38;100.00;93225.34;5068102;28;20467;-71
2023/03/02 03:34:06;;;;;;;12.95;8.98;;;;;;;3.32;100.00;93222.50;5068275;28;20086;-72
2023/03/02 03:36:33;;;;;;;13.65;8.30;;;;;;;3.23;100.00;93230.31;5062931;28;20189;-72
2023/03/02 03:39:00;;;;;;;10.10;7.40;;;;;;;3.20;100.00;93232.22;5067864;28;20098;-72
2023/03/02 03:41:27;;;;;;;9.10;7.53;;;;;;;3.23;100.00;93233.63;5068189;28;20447;-72
2023/03/02 03:43:55;;;;;;;12.07;7.88;;;;;;;3.21;100.00;93227.94;5067953;28;20041;-73
2023/03/02 03:46:23;;;;;;;12.40;10.32;;;;;;;3.05;100.00;93203.38;5067827;28;20056;-72
2023/03/02 03:48:50;;;;;;;13.88;11.10;;;;;;;3.26;100.00;93229.97;5069011;28;20094;-72
2023/03/02 03:51:17;;;;;;;11.18;10.00;;;;;;;3.21;100.00;93233.03;5071949;28;20043;-72
2023/03/02 03:53:44;;;;;;;11.77;8.68;;;;;;;3.13;100.00;93220.34;5066913;28;20052;-72
2023/03/02 03:56:11;;;;;;;10.90;7.70;;;;;;;3.14;100.00;93240.50;5071979;28;20094;-73
2023/03/02 03:58:38;;;;;;;13.25;9.02;;;;;;;3.20;100.00;93239.06;5071520;28;20582;-73
2023/03/02 04:01:05;;;;;;;9.15;7.78;;;;;;;3.19;100.00;93234.91;5071922;28;20048;-72
2023/03/02 04:03:33;;;;;;;9.27;7.80;;;;;;;3.23;100.00;93237.94;5071594;28;20044;-71
2023/03/02 04:05:59;;;;;;;12.90;9.30;;;;;;;3.24;100.00;93237.75;5071129;28;20044;-71
2023/03/02 04:08:26;;;;;;;11.30;9.15;;;;;;;3.27;100.00;93236.63;5071427;28;20059;-71
2023/03/02 04:10:53;;;;;;;18.40;13.15;;;;;;;3.25;100.00;93234.28;5071705;28;20036;-73
2023/03/02 04:13:20;;;;;;;12.75;9.68;;;;;;;3.30;100.00;93238.84;5071389;28;20052;-72
2023/03/02 04:15:46;;;;;;;10.35;8.55;;;;;;;3.28;100.00;93235.72;5071332;28;20044;-73
2023/03/02 04:18:13;;;;;;;9.80;7.80;;;;;;;3.24;100.00;93244.59;5071378;28;20109;-72
2023/03/02 04:20:42;;;;;;;12.55;9.32;;;;;;;3.27;100.00;93245.06;5071320;28;20041;-72
2023/03/02 04:23:09;;;;;;;10.68;8.48;;;;;;;3.31;100.00;93238.69;5071478;28;20098;-72
2023/03/02 04:25:35;;;;;;;11.13;8.90;;;;;;;3.32;100.00;93245.34;5070976;28;20048;-72
2023/03/02 04:28:02;;;;;;;18.52;16.63;;;;;;;3.38;100.00;93243.13;5071246;28;20444;-72
2023/03/02 04:30:29;;;;;;;38.20;22.92;;;;;;;3.29;100.00;93242.34;5070889;28;20036;-72
2023/03/02 04:32:56;;;;;;;82.40;57.40;;;;;;;2.91;100.00;93218.34;5070834;28;20105;-73
2023/03/02 04:35:24;;;;;;;25.10;19.27;;;;;;;3.31;100.00;93248.06;5065855;28;20041;-72
2023/03/02 04:37:52;;;;;;;13.02;9.55;;;;;;;3.29;100.00;93239.81;5071166;28;20147;-72
2023/03/02 04:40:20;;;;;;;15.18;10.13;;;;;;;3.31;100.00;93248.84;5070984;28;20624;-72
2023/03/02 04:42:47;;;;;;;12.57;10.05;;;;;;;3.44;100.00;93253.41;5071061;28;20090;-72
2023/03/02 04:45:14;;;;;;;15.15;10.55;;;;;;;3.42;100.00;93239.31;5071058;28;20100;-72
2023/03/02 04:47:42;;;;;;;16.25;11.40;;;;;;;3.36;100.00;93248.34;5070845;28;20113;-72
2023/03/02 04:50:11;;;;;;;12.18;9.05;;;;;;;3.37;100.00;93246.63;5070771;28;20173;-72
2023/03/02 04:52:38;;;;;;;16.35;10.95;;;;;;;3.30;100.00;93242.19;5070672;28;20094;-72
2023/03/02 04:55:07;;;;;;;30.02;19.17;;;;;;;3.23;100.00;93230.31;5070689;28;20040;-72
2023/03/02 04:57:34;;;;;;;14.50;10.18;;;;;;;3.30;100.00;93242.19;5070618;28;20087;-73
2023/03/02 05:00:01;;;;;;;20.08;13.32;;;;;;;3.26;100.00;93238.41;5069633;28;20036;-72
2023/03/02 05:02:27;;;;;;;20.90;13.88;;;;;;;3.31;100.00;93250.59;5070592;28;20049;-72
2023/03/02 05:04:54;;;;;;;15.50;12.70;;;;;;;3.35;100.00;93251.84;5070626;28;20447;-72
2023/03/02 05:07:21;;;;;;;18.48;14.70;;;;;;;3.39;100.00;93247.25;5070358;28;20048;-72
2023/03/02 05:09:48;;;;;;;22.55;17.35;;;;;;;3.33;100.00;93246.94;5070651;28;20453;-72
2023/03/02 05:12:17;;;;;;;15.43;11.68;;;;;;;3.30;100.00;93238.84;5070558;28;20094;-71
2023/03/02 05:14:44;;;;;;;13.85;10.43;;;;;;;3.20;100.00;93249.22;5070533;28;20447;-71
2023/03/02 05:17:11;;;;;;;14.63;11.57;;;;;;;3.24;100.00;93252.22;5070385;28;20048;-71
2023/03/02 05:19:38;;;;;;;14.85;11.23;;;;;;;3.07;100.00;93242.09;5069954;28;20048;-71
2023/03/02 05:22:04;;;;;;;14.90;11.98;;;;;;;3.13;100.00;93250.78;5070386;28;20048;-71
2023/03/02 05:24:31;;;;;;;19.48;15.95;;;;;;;3.10;100.00;93249.38;5070401;28;20044;-71
2023/03/02 05:26:58;;;;;;;17.75;13.23;;;;;;;3.19;100.00;93252.69;5070020;28;20060;-72
2023/03/02 05:29:26;;;;;;;22.88;16.60;;;;;;;3.12;100.00;93255.09;5070090;28;20040;-71
2023/03/02 05:31:53;;;;;;;18.33;12.65;;;;;;;3.09;100.00;93249.56;5070172;28;20094;-71
2023/03/02 05:34:19;;;;;;;20.92;14.02;;;;;;;3.11;100.00;93261.13;5069573;28;20769;-71
2023/03/02 05:36:46;;;;;;;20.25;14.80;;;;;;;3.10;100.00;93259.53;5069713;28;20082;-70
2023/03/02 05:39:13;;;;;;;18.23;12.98;;;;;;;3.07;100.00;93259.88;5070016;28;20048;-69
2023/03/02 05:41:41;;;;;;;20.70;13.93;;;;;;;2.90;100.00;93243.88;5069413;28;20041;-70
2023/03/02 05:44:10;;;;;;;19.77;15.02;;;;;;;2.94;100.00;93260.34;5069492;28;20127;-72
2023/03/02 05:46:38;;;;;;;21.42;17.83;;;;;;;2.96;100.00;93252.59;5069668;28;20139;-71
2023/03/02 05:49:05;;;;;;;20.65;15.15;;;;;;;2.92;100.00;93259.75;5069755;28;20094;-71
2023/03/02 05:51:32;;;;;;;23.42;15.38;;;;;;;2.97;100.00;93256.72;5069546;28;20550;-71
2023/03/02 05:53:58;;;;;;;18.20;12.32;;;;;;;2.91;100.00;93260.66;5069431;28;20056;-71
2023/03/02 05:56:25;;;;;;;16.83;12.55;;;;;;;2.88;100.00;93250.88;5069319;28;20040;-71
2023/03/02 05:58:52;;;;;;;18.85;13.55;;;;;;;2.83;100.00;93243.75;5069555;28;20044;-70
2023/03/02 06:01:19;;;;;;;18.65;13.60;;;;;;;3.00;100.00;93259.72;5069269;28;20048;-70
2023/03/02 06:03:47;;;;;;;25.50;16.73;;;;;;;3.10;100.00;93262.06;5069270;28;20071;-71
2023/03/02 06:06:14;;;;;;;26.05;19.42;;;;;;;3.19;100.00;93268.72;5069132;28;20044;-71
2023/03/02 06:08:41;;;;;;;23.20;17.85;;;;;;;3.21;100.00;93273.63;5063822;28;20040;-71
2023/03/02 06:11:09;;;;;;;22.73;16.17;;;;;;;3.27;100.00;93272.97;5068841;28;20516;-71
2023/03/02 06:13:36;;;;;;;22.60;16.25;;;;;;;2.91;100.00;93230.22;5069122;28;20475;-70
2023/03/02 06:16:03;;;;;;;25.10;17.10;;;;;;;3.11;100.00;93273.03;5069104;28;20094;-71
2023/03/02 06:18:29;;;;;;;16.90;12.48;;;;;;;3.10;100.00;93274.75;5069191;28;20086;-70
2023/03/02 06:20:58;;;;;;;17.40;13.30;;;;;;;3.01;100.00;93276.50;5068646;28;20048;-71
2023/03/02 06:23:25;;;;;;;19.77;15.23;;;;;;;3.04;100.00;93271.13;5064034;28;20102;-71
2023/03/02 06:25:52;;;;;;;18.15;14.05;;;;;;;2.97;100.00;93275.28;5069104;28;20068;-71
2023/03/02 06:28:19;;;;;;;24.88;16.25;;;;;;;3.00;100.00;93271.63;5068753;28;20060;-71
2023/03/02 06:30:48;;;;;;;27.08;17.50;;;;;;;3.15;100.00;93280.13;5068803;28;20047;-70
2023/03/02 06:33:16;;;;;;;21.42;14.40;;;;;;;2.96;100.00;93266.06;5069048;28;20044;-70
2023/03/02 06:35:43;;;;;;;20.52;15.00;;;;;;;3.04;100.00;93278.75;5068819;28;20479;-70
2023/03/02 06:38:11;;;;;;;20.50;15.32;;;;;;;3.14;100.00;93277.78;5068564;28;20045;-70
2023/03/02 06:40:38;;;;;;;24.15;16.98;;;;;;;3.10;100.00;93284.13;5068381;28;20048;-71
2023/03/02 06:43:05;;;;;;;22.05;15.40;;;;;;;3.27;100.00;93278.06;5068964;28;20090;-71
2023/03/02 06:45:33;;;;;;;21.67;16.55;;;;;;;3.38;100.00;93283.75;5068626;28;20449;-71
2023/03/02 06:48:00;;;;;;;21.35;15.10;;;;;;;3.30;100.00;93270.13;5068547;28;20091;-72
2023/03/02 06:50:28;;;;;;;17.10;14.35;;;;;;;3.24;100.00;93287.75;5069041;28;20110;-70
2023/03/02 06:52:54;;;;;;;19.00;14.57;;;;;;;3.20;100.00;93282.22;5068474;28;20484;-70
2023/03/02 06:55:23;;;;;;;23.52;16.27;;;;;;;3.17;100.00;93288.41;5068950;28;20045;-71
2023/03/02 06:57:50;;;;;;;23.45;17.17;;;;;;;3.32;100.00;93290.25;5068736;28;20040;-71
2023/03/02 07:00:23;;;;;;;19.92;15.63;;;;;;;3.44;100.00;93293.25;5068169;28;20052;-71
2023/03/02 07:02:51;;;;;;;18.55;14.48;;;;;;;3.46;100.00;93289.59;5068715;28;20052;-71
2023/03/02 07:05:18;;;;;;;20.67;16.50;;;;;;;3.59;100.00;93293.34;5068148;28;20048;-71
2023/03/02 07:07:45;;;;;;;21.50;17.10;;;;;;;3.74;100.00;93296.00;5068180;28;20094;-70
2023/03/02 07:10:12;;;;;;;20.70;18.00;;;;;;;3.67;100.00;93295.88;5068490;28;20434;-70
2023/03/02 07:12:41;;;;;;;20.08;16.23;;;;;;;3.71;100.00;93289.50;5068293;28;20048;-71
2023/03/02 07:15:11;;;;;;;22.00;17.02;;;;;;;3.90;100.00;93289.25;5068585;28;20045;-70
2023/03/02 07:17:37;;;;;;;20.92;17.08;;;;;;;3.87;100.00;93290.38;5067982;28;20083;-71
2023/03/02 07:20:05;;;;;;;21.45;17.35;;;;;;;3.98;100.00;93282.38;5063093;28;20102;-71
2023/03/02 07:22:31;;;;;;;24.70;17.85;;;;;;;4.12;100.00;93292.81;5068590;28;20052;-71
2023/03/02 07:24:58;;;;;;;25.35;18.83;;;;;;;4.14;100.00;93288.34;5071455;28;20040;-70
2023/03/02 07:27:25;;;;;;;21.63;18.10;;;;;;;4.09;100.00;93295.69;5067188;28;20106;-70
2023/03/02 07:29:53;;;;;;;23.38;19.23;;;;;;;4.08;100.00;93296.63;5072387;28;20052;-71
2023/03/02 07:32:19;;;;;;;22.20;18.25;;;;;;;3.86;100.00;93297.22;5072164;28;20040;-71
2023/03/02 07:34:46;;;;;;;23.17;18.38;;;;;;;3.99;100.00;93298.44;5072110;28;20556;-71
2023/03/02 07:37:13;;;;;;;20.90;17.23;;;;;;;3.90;100.00;93297.69;5072663;28;20416;-71
2023/03/02 07:39:39;;;;;;;22.80;19.48;;;;;;;3.74;100.00;93288.38;5072152;28;20048;-71
2023/03/02 07:42:07;;;;;;;23.63;19.25;;;;;;;3.80;100.00;93297.88;5061349;28;20048;-71
2023/03/02 07:44:34;;;;;;;24.30;19.50;;;;;;;3.77;100.00;93294.88;5060623;28;21194;-71
2023/03/02 07:47:02;;;;;;;24.65;20.48;;;;;;;3.87;100.00;93295.47;5063449;28;20090;-71
2023/03/02 07:49:29;;;;;;;29.02;24.05;;;;;;;3.97;100.00;93295.25;5071740;28;20041;-71
2023/03/02 07:51:56;;;;;;;29.30;24.13;;;;;;;4.08;100.00;93296.63;5067686;28;20044;-72
2023/03/02 07:54:25;;;;;;;27.55;22.05;;;;;;;4.18;100.00;93292.13;5068476;28;20086;-71
2023/03/02 07:56:51;;;;;;;30.60;23.30;;;;;;;4.14;100.00;93298.50;5071820;28;20044;-70
2023/03/02 07:59:18;;;;;;;29.80;24.50;;;;;;;4.04;100.00;93280.13;5071387;28;20094;-71
2023/03/02 08:01:45;;;;;;;26.38;21.40;;;;;;;4.22;100.00;93290.81;5068935;28;20048;-70
2023/03/02 08:04:13;;;;;;;29.88;23.48;;;;;;;4.08;100.00;93292.31;5071742;28;20036;-71
2023/03/02 08:06:40;;;;;;;25.98;21.17;;;;;;;4.04;100.00;93292.84;5071124;28;20048;-71
2023/03/02 08:09:07;;;;;;;26.63;21.42;;;;;;;3.93;100.00;93292.25;5071570;28;20048;-71
2023/03/02 08:11:36;;;;;;;28.40;23.13;;;;;;;3.95;100.00;93292.09;5071462;28;20631;-71
2023/03/02 08:14:03;;;;;;;29.77;24.17;;;;;;;3.99;100.00;93296.66;5071135;28;20538;-71
2023/03/02 08:16:30;;;;;;;33.50;25.40;;;;;;;4.09;100.00;93283.78;5071242;28;20101;-71
2023/03/02 08:18:57;;;;;;;27.17;21.77;;;;;;;4.12;100.00;93288.50;5071204;28;20106;-71
2023/03/02 08:21:27;;;;;;;26.90;21.38;;;;;;;3.88;100.00;93286.88;5071544;28;20098;-70
2023/03/02 08:23:53;;;;;;;30.33;21.83;;;;;;;3.96;100.00;93286.03;5071823;28;20048;-70
2023/03/02 08:26:20;;;;;;;28.58;21.80;;;;;;;3.82;100.00;93280.72;5071185;28;20098;-70
2023/03/02 08:28:47;;;;;;;28.45;22.75;;;;;;;4.00;100.00;93280.47;5071760;28;20110;-70
2023/03/02 08:31:14;;;;;;;32.35;26.75;;;;;;;4.11;100.00;93276.75;5071954;28;20090;-71
2023/03/02 08:33:41;;;;;;;33.22;25.73;;;;;;;4.20;100.00;93259.69;5070340;28;20106;-71
2023/03/02 08:36:11;;;;;;;30.65;25.23;;;;;;;4.35;100.00;93275.00;5054002;28;20102;-71
2023/03/02 08:38:39;;;;;;;29.70;22.50;;;;;;;4.34;100.00;93275.97;5071155;28;20110;-71
2023/03/02 08:41:10;;;;;;;27.25;20.88;;;;;;;4.40;100.00;93274.53;5056278;28;20045;-71
2023/03/02 08:43:37;;;;;;;29.35;23.15;;;;;;;4.48;100.00;93264.28;5069716;28;20057;-71
2023/03/02 08:46:05;;;;;;;29.13;21.55;;;;;;;4.44;100.00;93259.72;5069859;28;20081;-71
2023/03/02 08:48:32;;;;;;;28.23;21.20;;;;;;;4.49;100.00;93263.31;5065139;28;20056;-71
2023/03/02 08:51:00;;;;;;;43.20;34.88;;;;;;;4.38;100.00;93267.06;5071140;28;20048;-71
2023/03/02 08:53:28;;;;;;;25.80;20.65;;;;;;;4.40;100.00;93271.97;5071157;28;20044;-71
2023/03/02 08:55:56;;;;;;;30.08;22.70;;;;;;;4.43;100.00;93270.84;5071150;28;20094;-71
2023/03/02 08:58:23;;;;;;;36.40;28.42;;;;;;;4.62;100.00;93267.03;5071139;28;20099;-71
2023/03/02 09:00:50;;;;;;;34.63;27.45;;;;;;;4.85;100.00;93268.78;5070723;28;20451;-71
2023/03/02 09:03:17;;;;;;;28.77;21.77;;;;;;;4.59;100.00;93273.28;5071247;28;20815;-71
2023/03/02 09:05:44;;;;;;;31.25;23.58;;;;;;;4.59;100.00;93269.94;5070746;28;20094;-70
2023/03/02 09:08:11;;;;;;;32.15;24.67;;;;;;;4.67;100.00;93262.22;5067689;28;20465;-70
2023/03/02 09:10:38;;;;;;;33.65;24.55;;;;;;;4.86;100.00;93270.34;5070904;28;20084;-70
2023/03/02 09:13:06;;;;;;;36.50;27.02;;;;;;;4.84;100.00;93277.34;5070442;28;20555;-71
2023/03/02 09:15:33;;;;;;;34.75;24.42;;;;;;;4.92;100.00;93272.97;5058275;28;20052;-71
2023/03/02 09:18:00;;;;;;;26.58;20.95;;;;;;;5.02;100.00;93271.94;5070207;28;20078;-71
2023/03/02 09:20:26;;;;;;;24.63;19.15;;;;;;;5.21;100.00;93268.09;5070880;28;20451;-71
2023/03/02 09:22:53;;;;;;;24.30;19.90;;;;;;;5.31;100.00;93280.56;5070565;28;20102;-71
2023/03/02 09:25:20;;;;;;;24.30;19.60;;;;;;;5.46;100.00;93275.50;5070416;28;20319;-71
2023/03/02 09:27:47;;;;;;;25.23;19.45;;;;;;;5.85;100.00;93281.25;5070315;28;20102;-71
2023/03/02 09:30:16;;;;;;;21.65;16.85;;;;;;;5.80;100.00;93292.00;5070338;28;20106;-71
2023/03/02 09:32:43;;;;;;;20.75;17.15;;;;;;;5.92;100.00;93279.56;5070702;28;20096;-71
2023/03/02 09:35:09;;;;;;;18.10;15.45;;;;;;;6.08;100.00;93299.00;5070803;28;20117;-71
2023/03/02 09:37:37;;;;;;;19.77;16.40;;;;;;;6.06;100.00;93300.16;5070371;28;20654;-71
2023/03/02 09:40:13;;;;;;;20.52;16.23;;;;;;;6.38;100.00;93304.00;5070547;28;20048;-71
2023/03/02 09:43:01;;;;;;;19.33;15.90;;;;;;;6.35;100.00;93306.13;5070229;28;20048;-71
2023/03/02 09:45:50;;;;;;;17.42;14.70;;;;;;;6.32;100.00;93314.94;5070104;28;20104;-71
2023/03/02 09:48:28;;;;;;;16.75;13.48;;;;;;;6.46;100.00;93305.66;5069476;28;20113;-71
2023/03/02 09:51:05;;;;;;;15.88;13.27;;;;;;;6.68;100.00;93298.00;5069525;28;20044;-71
2023/03/02 09:53:41;;;;;;;18.23;14.30;;;;;;;6.77;100.00;93299.44;5069431;28;20053;-71
2023/03/02 09:56:14;;;;;;;17.42;12.95;;;;;;;6.89;100.00;93306.63;5069375;28;20508;-72
2023/03/02 09:58:47;;;;;;;16.08;12.52;;;;;;;6.50;100.00;93306.09;5069598;28;20048;-73
2023/03/02 10:01:22;;;;;;;19.10;15.43;;;;;;;6.68;100.00;93303.13;5069174;28;20086;-72
2023/03/02 10:03:55;;;;;;;24.15;17.67;;;;;;;6.66;100.00;93290.53;5069660;28;20080;-73
2023/03/02 10:06:21;;;;;;;19.83;14.80;;;;;;;6.84;100.00;93296.19;5070137;28;20051;-72
2023/03/02 10:08:49;;;;;;;20.42;15.57;;;;;;;6.70;100.00;93296.06;5058236;28;20090;-72
2023/03/02 10:11:22;;;;;;;20.83;13.98;;;;;;;6.61;100.00;93292.06;5047330;28;20045;-72
2023/03/02 10:13:55;;;;;;;19.30;15.15;;;;;;;6.57;100.00;93291.63;5055544;28;20055;-72
2023/03/02 10:16:34;;;;;;;16.58;13.25;;;;;;;6.05;100.00;93285.78;5069546;28;20481;-72
2023/03/02 10:19:09;;;;;;;21.05;16.55;;;;;;;6.04;100.00;93277.38;5055000;28;20071;-71
2023/03/02 10:21:40;;;;;;;18.58;15.50;;;;;;;6.07;100.00;93287.19;5069209;28;20641;-72
2023/03/02 10:24:21;;;;;;;26.65;18.55;;;;;;;6.17;100.00;93281.84;5069621;28;20044;-72
2023/03/02 10:26:53;;;;;;;21.55;17.00;;;;;;;6.14;100.00;93277.06;5068847;28;20436;-72
2023/03/02 10:29:43;;;;;;;16.25;13.52;;;;;;;5.84;100.00;93277.91;5057825;28;20044;-72
2023/03/02 10:32:19;;;;;;;18.92;15.25;;;;;;;5.83;100.00;93268.69;5069147;28;20097;-72
2023/03/02 10:34:48;;;;;;;19.13;15.07;;;;;;;5.55;100.00;93261.69;5064143;28;20060;-72
2023/03/02 10:37:17;;;;;;;16.65;13.73;;;;;;;5.73;100.00;93260.50;5063366;28;20052;-71
2023/03/02 10:39:44;;;;;;;21.02;16.52;;;;;;;5.77;100.00;93258.41;5068740;28;20052;-71
2023/03/02 10:42:15;;;;;;;20.67;15.55;;;;;;;5.83;100.00;93255.94;5043153;28;20125;-72
2023/03/02 10:44:46;;;;;;;20.33;14.32;;;;;;;5.93;100.00;93254.88;5067600;28;20084;-72
2023/03/02 10:47:22;;;;;;;17.63;14.50;;;;;;;5.82;100.00;93258.66;5057456;28;20480;-72
2023/03/02 10:49:50;;;;;;;20.45;15.73;;;;;;;5.82;100.00;93254.34;5069698;28;21287;-72
2023/03/02 10:52:19;;;;;;;20.65;16.70;;;;;;;5.73;100.00;93255.41;5068917;28;20053;-72
2023/03/02 10:54:46;;;;;;;21.35;16.10;;;;;;;5.87;100.00;93244.41;5068773;28;20037;-72
2023/03/02 10:57:28;;;;;;;20.02;15.77;;;;;;;6.07;100.00;93243.06;5067993;28;20080;-72
2023/03/02 11:00:00;;;;;;;18.48;15.07;;;;;;;6.23;100.00;93247.16;5068334;28;20040;-72
2023/03/02 11:02:29;;;;;;;17.33;13.27;;;;;;;6.23;100.00;93240.28;5069282;28;20044;-72
2023/03/02 11:04:57;;;;;;;19.98;14.45;;;;;;;6.43;100.00;93238.91;5065497;28;20088;-72
2023/03/02 11:07:26;;;;;;;19.70;14.43;;;;;;;6.33;100.00;93242.53;5058006;28;20048;-72
2023/03/02 11:09:58;;;;;;;20.90;14.82;;;;;;;6.40;100.00;93238.28;5060815;28;20053;-72
2023/03/02 11:12:25;;;;;;;20.13;14.55;;;;;;;6.44;100.00;93241.28;5060366;28;20048;-72
2023/03/02 11:15:02;;;;;;;18.60;13.82;;;;;;;6.48;100.00;93244.25;5066708;28;20048;-72
2023/03/02 11:17:37;;;;;;;17.48;13.15;;;;;;;6.43;100.00;93249.09;5068855;28;20044;-72
2023/03/02 11:20:05;;;;;;;18.17;13.15;;;;;;;6.37;100.00;93240.41;5067064;28;20036;-72
2023/03/02 11:22:38;;;;;;;19.75;13.30;;;;;;;6.30;100.00;93240.38;5067978;28;20056;-72
2023/03/02 11:25:10;;;;;;;25.67;18.30;;;;;;;6.36;100.00;93238.84;5066775;28;20550;-72